createdAt,value
2023-07-09T00:00:47.854Z,5.94
2023-07-09T00:01:47.903Z,6.42
2023-07-09T00:02:47.911Z,5.83
2023-07-09T00:03:47.916Z,6.14
2023-07-09T00:04:47.881Z,5.40
2023-07-09T00:05:48.205Z,5.07
2023-07-09T00:06:47.872Z,5.93
2023-07-09T00:07:47.856Z,5.37
2023-07-09T00:08:47.858Z,5.49
2023-07-09T00:09:47.844Z,5.64
2023-07-09T00:10:47.828Z,5.53
2023-07-09T00:11:47.836Z,6.32
2023-07-09T00:12:47.852Z,5.24
2023-07-09T00:13:47.910Z,5.81
2023-07-09T00:14:47.847Z,5.99
2023-07-09T00:15:47.907Z,6.56
2023-07-09T00:16:48.941Z,5.90
2023-07-09T00:17:47.884Z,5.65
2023-07-09T00:18:47.833Z,5.83
2023-07-09T00:19:47.823Z,5.67
2023-07-09T00:20:47.816Z,5.93
2023-07-09T00:21:47.804Z,6.47
2023-07-09T00:22:47.803Z,5.91
2023-07-09T00:23:47.854Z,6.38
2023-07-09T00:24:47.914Z,5.78
2023-07-09T00:25:47.951Z,5.51
2023-07-09T00:26:48.032Z,6.10
2023-07-09T00:27:48.065Z,5.92
2023-07-09T00:28:48.121Z,6.31
2023-07-09T00:29:48.179Z,6.45
2023-07-09T00:30:48.269Z,6.01
2023-07-09T00:31:48.338Z,6.21
2023-07-09T00:32:48.383Z,5.48
2023-07-09T00:33:48.384Z,7.16
2023-07-09T00:34:48.438Z,6.76
2023-07-09T00:35:48.486Z,7.14
2023-07-09T00:36:48.551Z,6.35
2023-07-09T00:37:48.592Z,6.72
2023-07-09T00:38:48.665Z,6.04
2023-07-09T00:39:48.731Z,6.39
2023-07-09T00:40:48.774Z,6.80
2023-07-09T00:41:48.826Z,6.46
2023-07-09T00:42:48.886Z,6.28
2023-07-09T00:43:48.958Z,5.51
2023-07-09T00:44:48.993Z,6.08
2023-07-09T00:45:51.024Z,6.47
2023-07-09T00:46:49.069Z,5.54
2023-07-09T00:47:49.088Z,6.35
2023-07-09T00:48:49.050Z,6.85
2023-07-09T00:49:49.090Z,6.64
2023-07-09T00:50:49.059Z,6.13
2023-07-09T00:51:49.111Z,5.92
2023-07-09T00:52:49.059Z,6.43
2023-07-09T00:53:49.062Z,6.40
2023-07-09T00:54:49.070Z,6.03
2023-07-09T00:55:49.070Z,6.98
2023-07-09T00:56:49.068Z,6.33
2023-07-09T00:57:49.072Z,6.38
2023-07-09T00:58:49.121Z,6.57
2023-07-09T00:59:49.095Z,6.55
2023-07-09T01:00:49.103Z,6.28
2023-07-09T01:01:49.203Z,5.46
2023-07-09T01:02:49.184Z,6.48
2023-07-09T01:03:49.096Z,6.27
2023-07-09T01:04:49.200Z,5.85
2023-07-09T01:05:49.096Z,6.09
2023-07-09T01:06:49.100Z,5.65
2023-07-09T01:07:49.107Z,6.01
2023-07-09T01:08:49.105Z,6.10
2023-07-09T01:09:49.108Z,5.94
2023-07-09T01:10:49.113Z,6.22
2023-07-09T01:11:49.119Z,5.91
2023-07-09T01:12:49.148Z,5.91
2023-07-09T01:13:49.240Z,5.86
2023-07-09T01:14:49.175Z,6.28
2023-07-09T01:15:49.330Z,6.09
2023-07-09T01:16:49.218Z,5.40
2023-07-09T01:17:49.281Z,5.86
2023-07-09T01:18:49.282Z,6.05
2023-07-09T01:19:49.272Z,6.44
2023-07-09T01:20:49.280Z,6.64
2023-07-09T01:21:49.289Z,6.47
2023-07-09T01:22:49.303Z,6.54
2023-07-09T01:23:49.372Z,5.79
2023-07-09T01:24:49.361Z,6.26
2023-07-09T01:25:49.412Z,5.50
2023-07-09T01:26:49.454Z,6.31
2023-07-09T01:27:49.509Z,5.86
2023-07-09T01:28:49.548Z,5.62
2023-07-09T01:29:49.610Z,5.94
2023-07-09T01:30:49.644Z,6.27
2023-07-09T01:31:49.684Z,6.31
2023-07-09T01:32:49.822Z,5.26
2023-07-09T01:33:50.288Z,5.86
2023-07-09T01:34:49.785Z,6.51
2023-07-09T01:35:49.792Z,6.03
2023-07-09T01:36:49.823Z,5.49
2023-07-09T01:37:49.835Z,6.06
2023-07-09T01:38:49.880Z,5.77
2023-07-09T01:39:49.907Z,6.02
2023-07-09T01:40:49.954Z,5.89
2023-07-09T01:41:49.989Z,5.68
2023-07-09T01:42:50.036Z,6.00
2023-07-09T01:43:50.088Z,6.15
2023-07-09T01:44:50.133Z,6.22
2023-07-09T01:45:50.171Z,5.65
2023-07-09T01:46:50.256Z,5.53
2023-07-09T01:47:50.366Z,5.49
2023-07-09T01:48:50.289Z,5.60
2023-07-09T01:49:50.336Z,6.38
2023-07-09T01:50:50.396Z,5.44
2023-07-09T01:51:50.407Z,5.65
2023-07-09T01:52:50.428Z,6.26
2023-07-09T01:53:50.449Z,7.37
2023-07-09T01:54:50.618Z,5.93
2023-07-09T01:55:50.524Z,5.85
2023-07-09T01:56:50.561Z,6.02
2023-07-09T01:57:50.584Z,5.71
2023-07-09T01:58:51.035Z,6.50
2023-07-09T01:59:50.642Z,5.45
2023-07-09T02:00:50.723Z,5.87
2023-07-09T02:01:50.673Z,6.35
2023-07-09T02:02:50.700Z,5.40
2023-07-09T02:03:50.724Z,5.43
2023-07-09T02:04:50.777Z,6.15
2023-07-09T02:05:50.803Z,5.61
2023-07-09T02:06:50.926Z,5.53
2023-07-09T02:07:50.869Z,5.27
2023-07-09T02:08:50.894Z,5.63
2023-07-09T02:09:51.860Z,6.73
2023-07-09T02:10:51.043Z,5.61
2023-07-09T02:11:51.125Z,5.74
2023-07-09T02:12:51.195Z,5.33
2023-07-09T02:13:51.314Z,5.42
2023-07-09T02:14:51.325Z,5.27
2023-07-09T02:15:51.397Z,5.17
2023-07-09T02:16:51.512Z,5.42
2023-07-09T02:17:51.565Z,5.71
2023-07-09T02:18:51.623Z,5.26
2023-07-09T02:19:51.662Z,5.38
2023-07-09T02:20:51.726Z,6.13
2023-07-09T02:21:51.808Z,4.87
2023-07-09T02:22:51.872Z,5.86
2023-07-09T02:23:51.887Z,5.66
2023-07-09T02:24:51.940Z,6.12
2023-07-09T02:25:51.987Z,5.76
2023-07-09T02:26:52.080Z,5.86
2023-07-09T02:27:52.051Z,5.45
2023-07-09T02:28:52.061Z,5.54
2023-07-09T02:29:52.064Z,6.63
2023-07-09T02:30:52.108Z,6.73
2023-07-09T02:31:52.099Z,6.69
2023-07-09T02:32:52.190Z,6.80
2023-07-09T02:33:52.117Z,5.92
2023-07-09T02:34:52.136Z,5.76
2023-07-09T02:35:52.145Z,5.89
2023-07-09T02:36:52.137Z,6.26
2023-07-09T02:37:52.167Z,5.67
2023-07-09T02:38:52.812Z,5.35
2023-07-09T02:39:52.150Z,5.30
2023-07-09T02:40:52.158Z,5.74
2023-07-09T02:41:52.198Z,5.67
2023-07-09T02:42:52.180Z,5.57
2023-07-09T02:43:52.181Z,6.88
2023-07-09T02:44:52.192Z,5.74
2023-07-09T02:45:52.196Z,5.57
2023-07-09T02:46:52.222Z,6.10
2023-07-09T02:47:52.349Z,6.32
2023-07-09T02:48:52.215Z,5.87
2023-07-09T02:49:52.237Z,6.12
2023-07-09T02:50:52.228Z,6.07
2023-07-09T02:51:52.269Z,5.85
2023-07-09T02:52:52.332Z,5.68
2023-07-09T02:53:52.338Z,5.71
2023-07-09T02:54:52.398Z,5.90
2023-07-09T02:55:52.448Z,5.53
2023-07-09T02:56:52.534Z,4.83
2023-07-09T02:57:52.617Z,5.67
2023-07-09T02:58:52.703Z,5.56
2023-07-09T02:59:52.768Z,5.27
2023-07-09T03:00:52.844Z,5.20
2023-07-09T03:01:52.922Z,5.87
2023-07-09T03:02:53.081Z,5.38
2023-07-09T03:03:53.078Z,5.04
2023-07-09T03:04:53.148Z,5.83
2023-07-09T03:05:53.241Z,5.39
2023-07-09T03:06:53.319Z,5.64
2023-07-09T03:07:53.402Z,6.43
2023-07-09T03:08:53.475Z,6.34
2023-07-09T03:09:53.545Z,6.23
2023-07-09T03:10:53.662Z,6.06
2023-07-09T03:11:53.698Z,6.35
2023-07-09T03:12:53.779Z,5.95
2023-07-09T03:13:53.888Z,5.84
2023-07-09T03:14:53.934Z,6.47
2023-07-09T03:15:53.989Z,5.86
2023-07-09T03:16:54.178Z,5.42
2023-07-09T03:17:54.196Z,5.96
2023-07-09T03:18:54.213Z,5.35
2023-07-09T03:19:54.320Z,5.50
2023-07-09T03:20:54.374Z,5.38
2023-07-09T03:21:54.448Z,4.98
2023-07-09T03:22:54.487Z,5.30
2023-07-09T03:23:54.543Z,6.02
2023-07-09T03:24:54.616Z,5.85
2023-07-09T03:25:54.665Z,5.63
2023-07-09T03:26:54.769Z,4.97
2023-07-09T03:27:54.810Z,4.80
2023-07-09T03:28:54.892Z,5.75
2023-07-09T03:29:54.966Z,6.19
2023-07-09T03:30:55.030Z,6.84
2023-07-09T03:31:55.181Z,6.40
2023-07-09T03:32:55.274Z,5.68
2023-07-09T03:33:55.304Z,5.75
2023-07-09T03:34:55.384Z,5.72
2023-07-09T03:35:55.472Z,5.94
2023-07-09T03:36:55.527Z,6.20
2023-07-09T03:37:55.570Z,6.29
2023-07-09T03:38:55.622Z,6.74
2023-07-09T03:39:55.674Z,6.42
2023-07-09T03:40:55.727Z,6.36
2023-07-09T03:41:55.802Z,6.19
2023-07-09T03:42:55.901Z,6.08
2023-07-09T03:43:55.964Z,5.54
2023-07-09T03:44:56.036Z,5.64
2023-07-09T03:45:56.112Z,6.19
2023-07-09T03:46:56.209Z,5.77
2023-07-09T03:47:56.286Z,5.40
2023-07-09T03:48:56.338Z,6.15
2023-07-09T03:49:56.350Z,6.03
2023-07-09T03:50:56.413Z,5.94
2023-07-09T03:51:56.487Z,5.77
2023-07-09T03:52:56.536Z,5.52
2023-07-09T03:53:56.605Z,5.30
2023-07-09T03:54:56.672Z,5.98
2023-07-09T03:55:56.758Z,5.93
2023-07-09T03:56:56.827Z,5.39
2023-07-09T03:57:56.910Z,5.61
2023-07-09T03:58:57.054Z,6.03
2023-07-09T03:59:57.068Z,6.54
2023-07-09T04:00:57.161Z,6.33
2023-07-09T04:01:57.381Z,6.48
2023-07-09T04:02:57.374Z,6.69
2023-07-09T04:03:57.439Z,5.49
2023-07-09T04:04:57.474Z,6.04
2023-07-09T04:05:57.554Z,6.17
2023-07-09T04:06:57.633Z,6.18
2023-07-09T04:07:57.711Z,6.08
2023-07-09T04:08:57.776Z,6.21
2023-07-09T04:09:57.842Z,5.62
2023-07-09T04:10:57.893Z,5.28
2023-07-09T04:11:57.936Z,6.56
2023-07-09T04:12:57.996Z,5.42
2023-07-09T04:13:58.072Z,5.64
2023-07-09T04:14:58.088Z,5.90
2023-07-09T04:15:58.178Z,5.52
2023-07-09T04:16:58.107Z,5.75
2023-07-09T04:17:58.176Z,5.91
2023-07-09T04:18:58.109Z,4.92
2023-07-09T04:19:58.131Z,5.65
2023-07-09T04:20:58.197Z,6.06
2023-07-09T04:21:58.232Z,6.02
2023-07-09T04:22:58.285Z,5.88
2023-07-09T04:23:58.299Z,6.17
2023-07-09T04:24:58.300Z,6.83
2023-07-09T04:25:58.279Z,6.48
2023-07-09T04:26:58.285Z,6.32
2023-07-09T04:27:58.317Z,6.56
2023-07-09T04:28:58.341Z,6.92
2023-07-09T04:29:58.357Z,6.59
2023-07-09T04:30:58.369Z,6.09
2023-07-09T04:31:58.414Z,6.80
2023-07-09T04:32:58.332Z,6.29
2023-07-09T04:33:58.301Z,6.60
2023-07-09T04:34:58.315Z,7.41
2023-07-09T04:35:58.318Z,7.37
2023-07-09T04:36:58.345Z,6.67
2023-07-09T04:37:58.360Z,6.50
2023-07-09T04:38:58.359Z,6.90
2023-07-09T04:39:58.342Z,7.67
2023-07-09T04:40:58.324Z,5.94
2023-07-09T04:41:58.328Z,6.24
2023-07-09T04:42:58.280Z,6.25
2023-07-09T04:43:58.255Z,6.95
2023-07-09T04:44:58.285Z,6.14
2023-07-09T04:45:58.269Z,7.07
2023-07-09T04:46:58.168Z,6.87
2023-07-09T04:47:58.154Z,7.26
2023-07-09T04:48:58.116Z,6.67
2023-07-09T04:49:58.116Z,7.19
2023-07-09T04:50:58.094Z,7.04
2023-07-09T04:51:58.057Z,6.56
2023-07-09T04:52:58.030Z,6.53
2023-07-09T04:53:58.015Z,6.57
2023-07-09T04:54:58.007Z,7.29
2023-07-09T04:55:58.960Z,7.29
2023-07-09T04:56:57.932Z,6.89
2023-07-09T04:57:57.927Z,6.40
2023-07-09T04:58:57.902Z,5.81
2023-07-09T04:59:57.878Z,6.10
2023-07-09T05:00:57.901Z,6.07
2023-07-09T05:01:57.795Z,5.30
2023-07-09T05:02:57.866Z,5.67
2023-07-09T05:03:57.826Z,6.15
2023-07-09T05:04:57.771Z,6.11
2023-07-09T05:05:57.753Z,5.67
2023-07-09T05:06:57.755Z,5.53
2023-07-09T05:07:57.747Z,6.41
2023-07-09T05:08:57.748Z,6.17
2023-07-09T05:09:57.743Z,6.11
2023-07-09T05:10:57.707Z,6.43
2023-07-09T05:11:57.662Z,6.28
2023-07-09T05:12:57.674Z,6.45
2023-07-09T05:13:57.702Z,6.73
2023-07-09T05:14:57.694Z,6.09
2023-07-09T05:15:57.701Z,5.95
2023-07-09T05:16:57.624Z,6.66
2023-07-09T05:17:57.698Z,6.70
2023-07-09T05:18:57.644Z,6.92
2023-07-09T05:19:57.554Z,6.58
2023-07-09T05:20:57.659Z,7.41
2023-07-09T05:21:57.464Z,7.15
2023-07-09T05:22:57.422Z,7.15
2023-07-09T05:23:57.448Z,7.57
2023-07-09T05:24:57.359Z,7.32
2023-07-09T05:25:57.326Z,7.39
2023-07-09T05:26:57.313Z,7.62
2023-07-09T05:27:57.305Z,8.74
2023-07-09T05:28:57.314Z,8.16
2023-07-09T05:29:57.351Z,6.92
2023-07-09T05:30:57.405Z,7.55
2023-07-09T05:31:57.370Z,8.66
2023-07-09T05:32:57.420Z,8.67
2023-07-09T05:33:57.410Z,7.88
2023-07-09T05:34:57.415Z,7.49
2023-07-09T05:35:57.408Z,8.57
2023-07-09T05:36:59.657Z,8.28
2023-07-09T05:37:57.363Z,7.97
2023-07-09T05:38:57.303Z,8.36
2023-07-09T05:39:57.286Z,7.73
2023-07-09T05:40:57.222Z,8.85
2023-07-09T05:41:57.501Z,8.03
2023-07-09T05:42:57.152Z,8.59
2023-07-09T05:43:57.122Z,8.29
2023-07-09T05:44:57.079Z,8.45
2023-07-09T05:45:57.044Z,7.96
2023-07-09T05:46:57.038Z,8.39
2023-07-09T05:47:56.980Z,8.29
2023-07-09T05:48:56.917Z,8.12
2023-07-09T05:49:56.881Z,8.05
2023-07-09T05:50:56.858Z,7.81
2023-07-09T05:51:56.787Z,7.91
2023-07-09T05:52:56.729Z,8.06
2023-07-09T05:53:56.688Z,8.09
2023-07-09T05:54:56.676Z,8.56
2023-07-09T05:55:56.661Z,7.62
2023-07-09T05:56:56.724Z,8.89
2023-07-09T05:57:56.712Z,7.33
2023-07-09T05:58:56.719Z,8.46
2023-07-09T05:59:56.731Z,9.07
2023-07-09T06:00:56.785Z,8.44
2023-07-09T06:01:56.755Z,8.57
2023-07-09T06:02:57.017Z,7.81
2023-07-09T06:03:56.895Z,8.20
2023-07-09T06:04:56.764Z,8.05
2023-07-09T06:05:56.738Z,8.25
2023-07-09T06:06:56.739Z,7.53
2023-07-09T06:07:56.716Z,7.22
2023-07-09T06:08:56.744Z,7.23
2023-07-09T06:09:56.763Z,8.19
2023-07-09T06:10:56.787Z,7.34
2023-07-09T06:11:56.790Z,7.68
2023-07-09T06:12:56.807Z,7.52
2023-07-09T06:13:57.031Z,6.66
2023-07-09T06:14:56.800Z,7.39
2023-07-09T06:15:56.816Z,7.45
2023-07-09T06:16:56.905Z,7.38
2023-07-09T06:17:56.839Z,8.38
2023-07-09T06:18:56.819Z,7.19
2023-07-09T06:19:59.427Z,7.44
2023-07-09T06:20:56.835Z,7.86
2023-07-09T06:21:56.751Z,7.48
2023-07-09T06:22:56.714Z,7.15
2023-07-09T06:23:56.645Z,7.99
2023-07-09T06:24:56.597Z,7.49
2023-07-09T06:25:56.547Z,7.49
2023-07-09T06:26:56.521Z,8.52
2023-07-09T06:27:56.446Z,8.27
2023-07-09T06:28:59.692Z,8.20
2023-07-09T06:29:56.350Z,8.68
2023-07-09T06:30:56.378Z,8.58
2023-07-09T06:31:56.288Z,8.80
2023-07-09T06:32:56.308Z,8.62
2023-07-09T06:33:56.196Z,8.45
2023-07-09T06:34:56.143Z,9.50
2023-07-09T06:35:56.125Z,9.54
2023-07-09T06:36:56.057Z,8.67
2023-07-09T06:37:56.004Z,7.97
2023-07-09T06:38:55.982Z,8.22
2023-07-09T06:39:55.908Z,8.51
2023-07-09T06:40:55.878Z,7.40
2023-07-09T06:41:55.823Z,7.28
2023-07-09T06:42:55.769Z,7.73
2023-07-09T06:43:55.713Z,7.81
2023-07-09T06:44:55.660Z,7.50
2023-07-09T06:45:55.610Z,7.11
2023-07-09T06:46:55.610Z,6.66
2023-07-09T06:47:55.559Z,6.78
2023-07-09T06:48:55.470Z,7.85
2023-07-09T06:49:55.419Z,7.03
2023-07-09T06:50:55.356Z,7.10
2023-07-09T06:51:55.304Z,7.51
2023-07-09T06:52:55.317Z,7.48
2023-07-09T06:53:55.306Z,6.90
2023-07-09T06:54:55.320Z,7.30
2023-07-09T06:55:55.281Z,7.40
2023-07-09T06:56:55.257Z,6.75
2023-07-09T06:57:55.216Z,7.10
2023-07-09T06:58:55.181Z,7.26
2023-07-09T06:59:55.139Z,6.88
2023-07-09T07:00:55.103Z,7.47
2023-07-09T07:01:55.133Z,6.98
2023-07-09T07:02:55.056Z,7.51
2023-07-09T07:03:55.012Z,7.07
2023-07-09T07:04:54.927Z,7.21
2023-07-09T07:05:54.950Z,7.23
2023-07-09T07:06:54.906Z,6.36
2023-07-09T07:07:54.903Z,7.41
2023-07-09T07:08:54.885Z,7.51
2023-07-09T07:09:54.883Z,7.32
2023-07-09T07:10:54.909Z,7.66
2023-07-09T07:11:54.906Z,6.91
2023-07-09T07:12:54.849Z,7.86
2023-07-09T07:13:54.868Z,6.98
2023-07-09T07:14:54.777Z,7.17
2023-07-09T07:15:54.723Z,7.82
2023-07-09T07:16:54.750Z,7.74
2023-07-09T07:17:54.675Z,7.34
2023-07-09T07:18:54.607Z,6.71
2023-07-09T07:19:54.548Z,7.90
2023-07-09T07:20:54.483Z,7.48
2023-07-09T07:21:54.434Z,6.55
2023-07-09T07:22:54.388Z,7.19
2023-07-09T07:23:54.311Z,7.86
2023-07-09T07:24:54.243Z,7.22
2023-07-09T07:25:54.182Z,7.27
2023-07-09T07:26:54.155Z,7.05
2023-07-09T07:27:54.103Z,7.44
2023-07-09T07:28:57.696Z,7.06
2023-07-09T07:29:53.905Z,8.20
2023-07-09T07:30:53.837Z,8.38
2023-07-09T07:31:53.778Z,6.83
2023-07-09T07:32:53.736Z,7.02
2023-07-09T07:33:53.589Z,7.65
2023-07-09T07:34:53.504Z,7.38
2023-07-09T07:36:20.356Z,7.44
2023-07-09T07:36:53.351Z,6.94
2023-07-09T07:37:53.311Z,6.99
2023-07-09T07:38:53.192Z,6.55
2023-07-09T07:39:53.140Z,6.56
2023-07-09T07:40:53.017Z,6.06
2023-07-09T07:41:52.936Z,6.36
2023-07-09T07:42:52.859Z,6.74
2023-07-09T07:43:52.764Z,6.61
2023-07-09T07:44:52.646Z,7.30
2023-07-09T07:45:52.564Z,6.61
2023-07-09T07:46:54.283Z,6.68
2023-07-09T07:47:52.397Z,7.17
2023-07-09T07:48:52.236Z,6.84
2023-07-09T07:49:52.133Z,6.77
2023-07-09T07:50:52.028Z,6.76
2023-07-09T07:51:51.925Z,6.86
2023-07-09T07:52:51.827Z,6.44
2023-07-09T07:53:51.703Z,7.63
2023-07-09T07:54:51.594Z,6.55
2023-07-09T07:55:51.495Z,6.45
2023-07-09T07:56:51.358Z,6.98
2023-07-09T07:57:51.252Z,7.00
2023-07-09T07:58:51.157Z,7.01
2023-07-09T07:59:51.015Z,6.86
2023-07-09T08:00:50.900Z,6.40
2023-07-09T08:01:50.859Z,6.69
2023-07-09T08:02:50.660Z,7.30
2023-07-09T08:03:50.643Z,23.29
2023-07-09T08:04:50.436Z,20.15
2023-07-09T08:05:50.376Z,13.26
2023-07-09T08:06:50.298Z,9.50
2023-07-09T08:07:50.227Z,9.01
2023-07-09T08:08:50.133Z,7.74
2023-07-09T08:09:50.012Z,9.11
2023-07-09T08:10:49.882Z,9.08
2023-07-09T08:11:49.756Z,14.19
2023-07-09T08:12:49.669Z,14.03
2023-07-09T08:13:49.672Z,12.01
2023-07-09T08:14:49.556Z,9.17
2023-07-09T08:15:49.832Z,9.75
2023-07-09T08:16:49.441Z,9.01
2023-07-09T08:17:49.312Z,8.86
2023-07-09T08:18:49.226Z,7.91
2023-07-09T08:19:49.061Z,6.52
2023-07-09T08:20:48.977Z,6.82
2023-07-09T08:21:48.905Z,6.79
2023-07-09T08:22:48.802Z,6.67
2023-07-09T08:23:48.698Z,6.08
2023-07-09T08:24:48.569Z,6.74
2023-07-09T08:25:48.446Z,6.33
2023-07-09T08:26:48.313Z,5.42
2023-07-09T08:27:48.173Z,6.52
2023-07-09T08:28:48.075Z,6.19
2023-07-09T08:29:47.940Z,6.18
2023-07-09T08:30:47.854Z,5.77
2023-07-09T08:31:47.714Z,6.14
2023-07-09T08:32:47.570Z,5.34
2023-07-09T08:33:47.397Z,5.76
2023-07-09T08:35:18.077Z,6.17
2023-07-09T08:35:47.059Z,6.14
2023-07-09T08:36:46.890Z,6.63
2023-07-09T08:37:46.727Z,6.32
2023-07-09T08:38:46.673Z,5.69
2023-07-09T08:39:46.386Z,5.39
2023-07-09T08:40:46.233Z,6.30
2023-07-09T08:41:46.028Z,5.41
2023-07-09T08:42:59.447Z,6.23
2023-07-09T08:43:45.704Z,5.63
2023-07-09T08:44:45.535Z,6.35
2023-07-09T08:45:45.451Z,5.73
2023-07-09T08:46:45.227Z,5.92
2023-07-09T08:47:45.129Z,6.14
2023-07-09T08:48:45.368Z,5.89
2023-07-09T08:49:44.690Z,5.54
2023-07-09T08:50:44.513Z,6.06
2023-07-09T08:51:44.322Z,5.60
2023-07-09T08:52:44.170Z,5.95
2023-07-09T08:53:43.966Z,5.07
2023-07-09T08:54:43.788Z,5.21
2023-07-09T08:55:43.602Z,5.48
2023-07-09T08:56:43.431Z,5.40
2023-07-09T08:57:43.281Z,5.56
2023-07-09T08:58:43.065Z,5.96
2023-07-09T08:59:42.893Z,5.16
2023-07-09T09:00:42.752Z,5.67
2023-07-09T09:01:42.538Z,5.84
2023-07-09T09:02:45.422Z,5.47
2023-07-09T09:03:42.216Z,5.33
2023-07-09T09:04:41.960Z,6.01
2023-07-09T09:05:41.850Z,5.82
2023-07-09T09:06:41.590Z,5.15
2023-07-09T09:07:41.400Z,5.42
2023-07-09T09:08:41.324Z,5.28
2023-07-09T09:09:41.024Z,5.34
2023-07-09T09:10:40.836Z,5.88
2023-07-09T09:11:40.641Z,5.55
2023-07-09T09:12:40.439Z,5.58
2023-07-09T09:13:40.333Z,5.41
2023-07-09T09:14:40.064Z,5.59
2023-07-09T09:15:39.892Z,4.60
2023-07-09T09:16:39.749Z,5.49
2023-07-09T09:17:39.659Z,5.63
2023-07-09T09:18:39.501Z,5.75
2023-07-09T09:19:39.280Z,5.78
2023-07-09T09:20:39.140Z,5.69
2023-07-09T09:21:38.976Z,5.85
2023-07-09T09:22:41.733Z,5.60
2023-07-09T09:23:38.683Z,5.93
2023-07-09T09:24:38.530Z,6.16
2023-07-09T09:25:38.335Z,5.29
2023-07-09T09:26:38.189Z,5.74
2023-07-09T09:27:38.020Z,5.40
2023-07-09T09:28:37.845Z,5.31
2023-07-09T09:29:37.724Z,6.43
2023-07-09T09:30:37.550Z,5.99
2023-07-09T09:31:37.457Z,6.11
2023-07-09T09:32:37.321Z,6.28
2023-07-09T09:33:37.121Z,5.24
2023-07-09T09:34:36.990Z,5.47
2023-07-09T09:35:36.806Z,6.25
2023-07-09T09:36:36.650Z,5.99
2023-07-09T09:37:36.486Z,5.43
2023-07-09T09:38:36.333Z,5.64
2023-07-09T09:39:36.179Z,5.56
2023-07-09T09:40:36.020Z,6.57
2023-07-09T09:41:35.867Z,5.81
2023-07-09T09:42:35.711Z,5.92
2023-07-09T09:43:35.574Z,6.02
2023-07-09T09:44:35.384Z,5.50
2023-07-09T09:45:35.260Z,5.65
2023-07-09T09:46:35.092Z,5.40
2023-07-09T09:47:35.190Z,5.45
2023-07-09T09:48:34.769Z,5.57
2023-07-09T09:49:34.576Z,6.02
2023-07-09T09:50:34.448Z,4.78
2023-07-09T09:51:34.254Z,5.38
2023-07-09T09:52:34.085Z,6.33
2023-07-09T09:53:34.015Z,6.45
2023-07-09T09:54:33.840Z,5.73
2023-07-09T09:55:33.699Z,5.75
2023-07-09T09:56:33.539Z,5.83
2023-07-09T09:57:33.396Z,5.67
2023-07-09T09:58:33.285Z,5.44
2023-07-09T09:59:33.158Z,5.48
2023-07-09T10:00:33.065Z,5.59
2023-07-09T10:01:33.006Z,5.59
2023-07-09T10:02:32.897Z,5.45
2023-07-09T10:03:32.770Z,5.31
2023-07-09T10:04:32.638Z,5.34
2023-07-09T10:05:32.566Z,5.53
2023-07-09T10:06:32.528Z,6.04
2023-07-09T10:07:32.427Z,5.66
2023-07-09T10:08:32.368Z,6.06
2023-07-09T10:09:32.239Z,5.75
2023-07-09T10:10:32.152Z,5.79
2023-07-09T10:11:32.102Z,5.73
2023-07-09T10:12:32.021Z,5.57
2023-07-09T10:13:32.092Z,6.14
2023-07-09T10:14:31.881Z,6.03
2023-07-09T10:15:31.838Z,5.27
2023-07-09T10:16:31.782Z,5.35
2023-07-09T10:17:31.787Z,5.79
2023-07-09T10:18:31.767Z,4.87
2023-07-09T10:19:31.688Z,6.92
2023-07-09T10:20:31.643Z,5.39
2023-07-09T10:21:31.708Z,5.04
2023-07-09T10:22:31.590Z,4.55
2023-07-09T10:23:31.522Z,4.70
2023-07-09T10:24:31.450Z,5.30
2023-07-09T10:25:31.419Z,5.06
2023-07-09T10:26:31.355Z,5.03
2023-07-09T10:27:31.321Z,4.22
2023-07-09T10:28:31.249Z,4.23
2023-07-09T10:29:31.190Z,4.82
2023-07-09T10:30:31.121Z,4.78
2023-07-09T10:31:31.160Z,5.36
2023-07-09T10:32:31.038Z,5.47
2023-07-09T10:33:30.967Z,4.79
2023-07-09T10:34:30.918Z,4.88
2023-07-09T10:35:32.071Z,4.52
2023-07-09T10:36:30.855Z,4.79
2023-07-09T10:37:31.128Z,4.66
2023-07-09T10:38:30.761Z,5.53
2023-07-09T10:39:30.676Z,5.10
2023-07-09T10:40:30.621Z,4.35
2023-07-09T10:41:30.940Z,4.94
2023-07-09T10:42:30.619Z,4.65
2023-07-09T10:43:32.135Z,5.00
2023-07-09T10:44:30.553Z,6.10
2023-07-09T10:45:30.471Z,5.28
2023-07-09T10:46:30.445Z,5.43
2023-07-09T10:47:30.376Z,4.73
2023-07-09T10:48:30.308Z,4.87
2023-07-09T10:49:30.207Z,5.07
2023-07-09T10:50:30.132Z,5.01
2023-07-09T10:51:30.074Z,4.23
2023-07-09T10:52:29.987Z,5.66
2023-07-09T10:53:29.941Z,4.42
2023-07-09T10:54:29.860Z,4.76
2023-07-09T10:55:29.766Z,5.60
2023-07-09T10:56:29.686Z,4.58
2023-07-09T10:57:29.597Z,4.43
2023-07-09T10:58:29.571Z,4.77
2023-07-09T10:59:29.463Z,4.39
2023-07-09T11:00:29.338Z,4.33
2023-07-09T11:01:29.293Z,4.69
2023-07-09T11:02:29.163Z,4.55
2023-07-09T11:03:29.244Z,4.27
2023-07-09T11:04:28.969Z,3.89
2023-07-09T11:05:28.899Z,4.73
2023-07-09T11:06:28.799Z,4.57
2023-07-09T11:07:28.720Z,4.25
2023-07-09T11:08:28.634Z,4.39
2023-07-09T11:09:28.529Z,4.27
2023-07-09T11:10:28.437Z,4.21
2023-07-09T11:11:28.318Z,4.43
2023-07-09T11:12:28.228Z,3.94
2023-07-09T11:13:42.576Z,3.94
2023-07-09T11:14:28.093Z,4.29
2023-07-09T11:15:27.911Z,3.79
2023-07-09T11:16:27.883Z,4.27
2023-07-09T11:17:27.714Z,4.74
2023-07-09T11:18:27.733Z,4.23
2023-07-09T11:19:27.519Z,4.67
2023-07-09T11:20:27.402Z,5.04
2023-07-09T11:21:27.312Z,4.25
2023-07-09T11:22:27.220Z,4.08
2023-07-09T11:23:27.164Z,4.35
2023-07-09T11:24:27.012Z,4.00
2023-07-09T11:25:26.902Z,3.98
2023-07-09T11:26:26.819Z,4.57
2023-07-09T11:27:26.684Z,4.15
2023-07-09T11:28:26.599Z,4.15
2023-07-09T11:29:26.479Z,4.24
2023-07-09T11:30:26.376Z,4.34
2023-07-09T11:31:26.626Z,4.27
2023-07-09T11:32:26.171Z,4.22
2023-07-09T11:33:26.057Z,4.58
2023-07-09T11:34:25.920Z,4.54
2023-07-09T11:35:25.794Z,4.07
2023-07-09T11:36:25.669Z,4.42
2023-07-09T11:37:25.573Z,4.41
2023-07-09T11:38:25.492Z,4.60
2023-07-09T11:39:25.365Z,4.74
2023-07-09T11:40:25.246Z,4.53
2023-07-09T11:41:25.146Z,4.65
2023-07-09T11:42:25.069Z,5.06
2023-07-09T11:43:24.934Z,4.63
2023-07-09T11:44:24.845Z,5.26
2023-07-09T11:45:24.725Z,4.27
2023-07-09T11:46:24.689Z,4.77
2023-07-09T11:47:24.534Z,4.36
2023-07-09T11:48:24.455Z,3.39
2023-07-09T11:49:24.366Z,4.32
2023-07-09T11:50:24.413Z,4.53
2023-07-09T11:51:24.221Z,4.66
2023-07-09T11:52:24.192Z,4.42
2023-07-09T11:53:24.149Z,5.10
2023-07-09T11:54:24.107Z,4.12
2023-07-09T11:55:23.039Z,4.90
2023-07-09T11:56:24.004Z,4.90
2023-07-09T11:57:23.930Z,5.00
2023-07-09T11:58:23.867Z,4.47
2023-07-09T11:59:23.761Z,4.69
2023-07-09T12:00:23.669Z,4.89
2023-07-09T12:01:23.602Z,4.69
2023-07-09T12:02:23.500Z,4.47
2023-07-09T12:03:23.486Z,4.34
2023-07-09T12:04:23.456Z,4.93
2023-07-09T12:05:23.343Z,4.61
2023-07-09T12:06:23.258Z,4.52
2023-07-09T12:07:23.209Z,4.86
2023-07-09T12:08:23.172Z,5.07
2023-07-09T12:09:23.141Z,4.68
2023-07-09T12:10:23.078Z,4.32
2023-07-09T12:11:23.035Z,5.29
2023-07-09T12:12:22.981Z,5.08
2023-07-09T12:13:22.895Z,4.56
2023-07-09T12:14:22.920Z,5.06
2023-07-09T12:15:22.808Z,5.30
2023-07-09T12:16:22.834Z,4.48
2023-07-09T12:17:22.732Z,4.40
2023-07-09T12:18:22.567Z,4.46
2023-07-09T12:19:22.507Z,5.61
2023-07-09T12:20:22.387Z,4.59
2023-07-09T12:21:22.318Z,4.47
2023-07-09T12:22:22.294Z,4.86
2023-07-09T12:23:22.200Z,5.06
2023-07-09T12:24:22.144Z,4.55
2023-07-09T12:25:22.065Z,4.78
2023-07-09T12:26:21.999Z,4.45
2023-07-09T12:27:21.891Z,4.07
2023-07-09T12:28:21.810Z,4.35
2023-07-09T12:29:21.744Z,4.58
2023-07-09T12:30:21.645Z,4.48
2023-07-09T12:31:21.554Z,4.72
2023-07-09T12:32:21.509Z,4.27
2023-07-09T12:33:21.396Z,5.09
2023-07-09T12:34:21.335Z,4.21
2023-07-09T12:35:21.256Z,5.28
2023-07-09T12:36:21.176Z,5.15
2023-07-09T12:37:21.120Z,4.39
2023-07-09T12:38:21.024Z,4.76
2023-07-09T12:39:20.935Z,4.61
2023-07-09T12:40:20.854Z,4.53
2023-07-09T12:41:20.799Z,4.96
2023-07-09T12:42:20.735Z,4.70
2023-07-09T12:43:20.653Z,4.57
2023-07-09T12:44:20.591Z,4.56
2023-07-09T12:45:20.534Z,4.35
2023-07-09T12:46:20.514Z,4.50
2023-07-09T12:47:20.477Z,4.52
2023-07-09T12:48:20.315Z,4.35
2023-07-09T12:49:20.254Z,4.32
2023-07-09T12:50:20.212Z,4.50
2023-07-09T12:51:20.156Z,4.50
2023-07-09T12:52:20.114Z,4.60
2023-07-09T12:53:20.057Z,4.15
2023-07-09T12:54:19.999Z,4.58
2023-07-09T12:55:19.919Z,4.61
2023-07-09T12:56:19.859Z,4.78
2023-07-09T12:57:19.794Z,4.81
2023-07-09T12:58:19.722Z,4.41
2023-07-09T12:59:19.638Z,4.62
2023-07-09T13:00:19.607Z,4.38
2023-07-09T13:01:19.558Z,4.79
2023-07-09T13:02:19.545Z,4.67
2023-07-09T13:03:19.609Z,4.39
2023-07-09T13:04:19.354Z,4.28
2023-07-09T13:05:19.290Z,4.20
2023-07-09T13:06:19.208Z,4.67
2023-07-09T13:07:19.140Z,4.25
2023-07-09T13:08:19.068Z,4.30
2023-07-09T13:09:19.006Z,4.32
2023-07-09T13:10:18.950Z,4.70
2023-07-09T13:11:18.871Z,4.22
2023-07-09T13:12:18.828Z,4.56
2023-07-09T13:13:18.738Z,4.94
2023-07-09T13:14:18.644Z,4.29
2023-07-09T13:15:18.540Z,4.24
2023-07-09T13:16:18.493Z,4.43
2023-07-09T13:17:18.392Z,3.93
2023-07-09T13:18:18.345Z,4.41